sensor_id;sensor_type;location;lat;lon;timestamp;P1;durP1;ratioP1;P2;durP2;ratioP2
65328;SDS011;51941;52.210;5.158;2022-11-15T00:00:12;36.92;;;19.45;;
65328;SDS011;51941;52.210;5.158;2022-11-15T00:02:57;31.40;;;15.82;;
65328;SDS011;51941;52.210;5.158;2022-11-15T00:05:43;35.60;;;18.10;;
65328;SDS011;51941;52.210;5.158;2022-11-15T00:08:29;26.48;;;14.02;;
65328;SDS011;51941;52.210;5.158;2022-11-15T00:11:15;31.73;;;15.85;;
65328;SDS011;51941;52.210;5.158;2022-11-15T00:14:00;29.42;;;15.15;;
65328;SDS011;51941;52.210;5.158;2022-11-15T00:16:48;32.10;;;15.73;;
65328;SDS011;51941;52.210;5.158;2022-11-15T00:19:33;29.45;;;14.40;;
65328;SDS011;51941;52.210;5.158;2022-11-15T00:22:18;29.27;;;14.77;;
65328;SDS011;51941;52.210;5.158;2022-11-15T00:25:04;24.65;;;12.73;;
65328;SDS011;51941;52.210;5.158;2022-11-15T00:27:50;36.20;;;16.88;;
65328;SDS011;51941;52.210;5.158;2022-11-15T00:30:39;40.55;;;15.80;;
65328;SDS011;51941;52.210;5.158;2022-11-15T00:33:26;40.20;;;17.75;;
65328;SDS011;51941;52.210;5.158;2022-11-15T00:36:11;33.65;;;14.80;;
65328;SDS011;51941;52.210;5.158;2022-11-15T00:38:56;32.83;;;14.50;;
65328;SDS011;51941;52.210;5.158;2022-11-15T00:41:42;39.08;;;16.77;;
65328;SDS011;51941;52.210;5.158;2022-11-15T00:44:27;41.85;;;16.20;;
65328;SDS011;51941;52.210;5.158;2022-11-15T00:47:12;29.77;;;13.93;;
65328;SDS011;51941;52.210;5.158;2022-11-15T00:49:59;38.97;;;17.20;;
65328;SDS011;51941;52.210;5.158;2022-11-15T00:52:44;41.08;;;17.60;;
65328;SDS011;51941;52.210;5.158;2022-11-15T00:55:30;40.28;;;17.40;;
65328;SDS011;51941;52.210;5.158;2022-11-15T00:58:15;33.25;;;15.00;;
65328;SDS011;51941;52.210;5.158;2022-11-15T01:01:08;43.72;;;18.13;;
65328;SDS011;51941;52.210;5.158;2022-11-15T01:03:54;50.50;;;19.80;;
65328;SDS011;51941;52.210;5.158;2022-11-15T01:06:41;46.83;;;18.90;;
65328;SDS011;51941;52.210;5.158;2022-11-15T01:09:26;38.97;;;17.63;;
65328;SDS011;51941;52.210;5.158;2022-11-15T01:12:11;51.50;;;19.00;;
65328;SDS011;51941;52.210;5.158;2022-11-15T01:14:57;34.20;;;15.05;;
65328;SDS011;51941;52.210;5.158;2022-11-15T01:17:42;36.50;;;16.98;;
65328;SDS011;51941;52.210;5.158;2022-11-15T01:20:28;36.35;;;16.25;;
65328;SDS011;51941;52.210;5.158;2022-11-15T01:23:15;35.58;;;16.23;;
65328;SDS011;51941;52.210;5.158;2022-11-15T01:26:01;36.38;;;15.75;;
65328;SDS011;51941;52.210;5.158;2022-11-15T01:28:47;35.97;;;16.48;;
65328;SDS011;51941;52.210;5.158;2022-11-15T01:31:32;32.55;;;14.95;;
65328;SDS011;51941;52.210;5.158;2022-11-15T01:34:18;35.97;;;16.73;;
65328;SDS011;51941;52.210;5.158;2022-11-15T01:37:03;38.78;;;17.20;;
65328;SDS011;51941;52.210;5.158;2022-11-15T01:39:50;46.08;;;19.30;;
65328;SDS011;51941;52.210;5.158;2022-11-15T01:42:35;41.15;;;19.88;;
65328;SDS011;51941;52.210;5.158;2022-11-15T01:45:21;46.42;;;18.85;;
65328;SDS011;51941;52.210;5.158;2022-11-15T01:48:06;41.90;;;18.20;;
65328;SDS011;51941;52.210;5.158;2022-11-15T01:50:55;36.50;;;15.32;;
65328;SDS011;51941;52.210;5.158;2022-11-15T01:53:41;37.92;;;16.05;;
65328;SDS011;51941;52.210;5.158;2022-11-15T01:56:33;33.17;;;15.35;;
65328;SDS011;51941;52.210;5.158;2022-11-15T01:59:23;35.30;;;16.17;;
65328;SDS011;51941;52.210;5.158;2022-11-15T02:02:08;35.78;;;17.13;;
65328;SDS011;51941;52.210;5.158;2022-11-15T02:04:54;39.25;;;18.65;;
65328;SDS011;51941;52.210;5.158;2022-11-15T02:07:39;42.25;;;18.48;;
65328;SDS011;51941;52.210;5.158;2022-11-15T02:10:25;33.85;;;16.52;;
65328;SDS011;51941;52.210;5.158;2022-11-15T02:13:15;45.50;;;21.05;;
65328;SDS011;51941;52.210;5.158;2022-11-15T02:16:04;41.20;;;18.20;;
65328;SDS011;51941;52.210;5.158;2022-11-15T02:18:56;48.15;;;20.70;;
65328;SDS011;51941;52.210;5.158;2022-11-15T02:21:48;45.42;;;19.23;;
65328;SDS011;51941;52.210;5.158;2022-11-15T02:24:54;37.90;;;17.80;;
65328;SDS011;51941;52.210;5.158;2022-11-15T02:30:57;47.63;;;19.88;;
65328;SDS011;51941;52.210;5.158;2022-11-15T02:33:51;37.00;;;18.25;;
65328;SDS011;51941;52.210;5.158;2022-11-15T02:36:42;43.55;;;19.48;;
65328;SDS011;51941;52.210;5.158;2022-11-15T02:39:34;48.25;;;21.90;;
65328;SDS011;51941;52.210;5.158;2022-11-15T02:42:24;36.40;;;18.13;;
65328;SDS011;51941;52.210;5.158;2022-11-15T02:45:30;42.65;;;18.77;;
65328;SDS011;51941;52.210;5.158;2022-11-15T02:48:22;31.42;;;16.17;;
65328;SDS011;51941;52.210;5.158;2022-11-15T02:51:09;41.87;;;18.10;;
65328;SDS011;51941;52.210;5.158;2022-11-15T02:53:56;35.45;;;16.92;;
65328;SDS011;51941;52.210;5.158;2022-11-15T02:56:41;46.95;;;19.23;;
65328;SDS011;51941;52.210;5.158;2022-11-15T03:02:59;48.80;;;20.33;;
65328;SDS011;51941;52.210;5.158;2022-11-15T03:06:00;39.33;;;16.77;;
65328;SDS011;51941;52.210;5.158;2022-11-15T03:08:57;35.22;;;17.10;;
65328;SDS011;51941;52.210;5.158;2022-11-15T03:11:49;34.13;;;16.63;;
65328;SDS011;51941;52.210;5.158;2022-11-15T03:14:42;33.63;;;16.05;;
65328;SDS011;51941;52.210;5.158;2022-11-15T03:17:36;37.03;;;16.67;;
65328;SDS011;51941;52.210;5.158;2022-11-15T03:20:25;39.47;;;19.00;;
65328;SDS011;51941;52.210;5.158;2022-11-15T03:23:14;44.83;;;19.88;;
65328;SDS011;51941;52.210;5.158;2022-11-15T03:25:59;48.90;;;21.30;;
65328;SDS011;51941;52.210;5.158;2022-11-15T03:28:46;36.72;;;16.50;;
65328;SDS011;51941;52.210;5.158;2022-11-15T03:31:36;39.25;;;17.35;;
65328;SDS011;51941;52.210;5.158;2022-11-15T03:34:34;34.00;;;15.80;;
65328;SDS011;51941;52.210;5.158;2022-11-15T03:37:24;50.95;;;21.00;;
65328;SDS011;51941;52.210;5.158;2022-11-15T03:40:17;31.30;;;15.20;;
65328;SDS011;51941;52.210;5.158;2022-11-15T03:43:10;30.70;;;15.48;;
65328;SDS011;51941;52.210;5.158;2022-11-15T03:46:04;35.03;;;15.13;;
65328;SDS011;51941;52.210;5.158;2022-11-15T03:48:56;39.72;;;19.17;;
65328;SDS011;51941;52.210;5.158;2022-11-15T03:51:48;35.28;;;18.13;;
65328;SDS011;51941;52.210;5.158;2022-11-15T03:54:33;39.33;;;18.88;;
65328;SDS011;51941;52.210;5.158;2022-11-15T03:57:20;38.85;;;18.75;;
65328;SDS011;51941;52.210;5.158;2022-11-15T04:00:07;29.88;;;17.20;;
65328;SDS011;51941;52.210;5.158;2022-11-15T04:02:53;30.17;;;15.48;;
65328;SDS011;51941;52.210;5.158;2022-11-15T04:05:38;35.17;;;16.75;;
65328;SDS011;51941;52.210;5.158;2022-11-15T04:08:23;53.45;;;22.27;;
65328;SDS011;51941;52.210;5.158;2022-11-15T04:11:09;31.35;;;17.13;;
65328;SDS011;51941;52.210;5.158;2022-11-15T04:13:55;28.02;;;15.38;;
65328;SDS011;51941;52.210;5.158;2022-11-15T04:16:41;26.52;;;14.98;;
65328;SDS011;51941;52.210;5.158;2022-11-15T04:19:26;29.27;;;16.45;;
65328;SDS011;51941;52.210;5.158;2022-11-15T04:22:29;31.40;;;15.65;;
65328;SDS011;51941;52.210;5.158;2022-11-15T04:25:32;23.98;;;14.73;;
65328;SDS011;51941;52.210;5.158;2022-11-15T04:28:17;27.20;;;15.90;;
65328;SDS011;51941;52.210;5.158;2022-11-15T04:31:04;23.63;;;15.02;;
65328;SDS011;51941;52.210;5.158;2022-11-15T04:33:50;21.70;;;13.18;;
65328;SDS011;51941;52.210;5.158;2022-11-15T04:36:35;22.00;;;14.38;;
65328;SDS011;51941;52.210;5.158;2022-11-15T04:39:38;22.77;;;13.35;;
65328;SDS011;51941;52.210;5.158;2022-11-15T04:42:23;22.48;;;12.65;;
65328;SDS011;51941;52.210;5.158;2022-11-15T04:45:09;17.42;;;10.98;;
65328;SDS011;51941;52.210;5.158;2022-11-15T04:47:56;17.13;;;11.15;;
65328;SDS011;51941;52.210;5.158;2022-11-15T04:50:41;16.17;;;10.43;;
65328;SDS011;51941;52.210;5.158;2022-11-15T04:53:27;21.17;;;13.55;;
65328;SDS011;51941;52.210;5.158;2022-11-15T04:56:12;22.98;;;13.38;;
65328;SDS011;51941;52.210;5.158;2022-11-15T04:58:57;18.13;;;12.43;;
65328;SDS011;51941;52.210;5.158;2022-11-15T05:01:43;21.13;;;13.65;;
65328;SDS011;51941;52.210;5.158;2022-11-15T05:04:29;16.83;;;10.70;;
65328;SDS011;51941;52.210;5.158;2022-11-15T05:07:14;16.70;;;11.05;;
65328;SDS011;51941;52.210;5.158;2022-11-15T05:09:59;14.10;;;9.57;;
65328;SDS011;51941;52.210;5.158;2022-11-15T05:12:46;19.73;;;12.73;;
65328;SDS011;51941;52.210;5.158;2022-11-15T05:15:31;24.90;;;14.45;;
65328;SDS011;51941;52.210;5.158;2022-11-15T05:18:17;19.85;;;12.60;;
65328;SDS011;51941;52.210;5.158;2022-11-15T05:21:04;23.75;;;14.57;;
65328;SDS011;51941;52.210;5.158;2022-11-15T05:23:50;17.13;;;11.82;;
65328;SDS011;51941;52.210;5.158;2022-11-15T05:26:35;21.60;;;12.77;;
65328;SDS011;51941;52.210;5.158;2022-11-15T05:29:21;17.92;;;12.43;;
65328;SDS011;51941;52.210;5.158;2022-11-15T05:32:06;17.35;;;11.43;;
65328;SDS011;51941;52.210;5.158;2022-11-15T05:34:54;14.55;;;10.45;;
65328;SDS011;51941;52.210;5.158;2022-11-15T05:37:40;17.85;;;10.85;;
65328;SDS011;51941;52.210;5.158;2022-11-15T05:40:26;15.43;;;10.80;;
65328;SDS011;51941;52.210;5.158;2022-11-15T05:43:12;20.15;;;13.27;;
65328;SDS011;51941;52.210;5.158;2022-11-15T05:45:58;18.77;;;12.35;;
65328;SDS011;51941;52.210;5.158;2022-11-15T05:48:45;20.77;;;11.82;;
65328;SDS011;51941;52.210;5.158;2022-11-15T05:51:33;15.38;;;11.10;;
65328;SDS011;51941;52.210;5.158;2022-11-15T05:54:20;21.10;;;12.40;;
65328;SDS011;51941;52.210;5.158;2022-11-15T05:57:07;24.67;;;14.52;;
65328;SDS011;51941;52.210;5.158;2022-11-15T05:59:53;19.23;;;13.00;;
65328;SDS011;51941;52.210;5.158;2022-11-15T06:02:39;21.80;;;13.13;;
65328;SDS011;51941;52.210;5.158;2022-11-15T06:05:24;16.75;;;10.68;;
65328;SDS011;51941;52.210;5.158;2022-11-15T06:08:10;21.80;;;13.40;;
65328;SDS011;51941;52.210;5.158;2022-11-15T06:10:56;21.08;;;13.93;;
65328;SDS011;51941;52.210;5.158;2022-11-15T06:13:47;19.48;;;11.90;;
65328;SDS011;51941;52.210;5.158;2022-11-15T06:16:32;19.25;;;13.30;;
65328;SDS011;51941;52.210;5.158;2022-11-15T06:19:18;17.67;;;12.70;;
65328;SDS011;51941;52.210;5.158;2022-11-15T06:22:03;18.52;;;12.77;;
65328;SDS011;51941;52.210;5.158;2022-11-15T06:24:48;25.15;;;14.63;;
65328;SDS011;51941;52.210;5.158;2022-11-15T06:27:35;17.92;;;12.85;;
65328;SDS011;51941;52.210;5.158;2022-11-15T06:30:20;18.80;;;12.15;;
65328;SDS011;51941;52.210;5.158;2022-11-15T06:33:06;17.92;;;12.25;;
65328;SDS011;51941;52.210;5.158;2022-11-15T06:35:52;17.08;;;11.95;;
65328;SDS011;51941;52.210;5.158;2022-11-15T06:38:37;14.73;;;10.18;;
65328;SDS011;51941;52.210;5.158;2022-11-15T06:41:23;18.27;;;11.07;;
65328;SDS011;51941;52.210;5.158;2022-11-15T06:44:09;15.35;;;10.98;;
65328;SDS011;51941;52.210;5.158;2022-11-15T06:46:55;13.75;;;10.48;;
65328;SDS011;51941;52.210;5.158;2022-11-15T06:49:40;15.73;;;9.15;;
65328;SDS011;51941;52.210;5.158;2022-11-15T06:52:25;24.80;;;15.23;;
65328;SDS011;51941;52.210;5.158;2022-11-15T06:55:16;18.42;;;13.30;;
65328;SDS011;51941;52.210;5.158;2022-11-15T06:58:01;16.35;;;11.40;;
65328;SDS011;51941;52.210;5.158;2022-11-15T07:00:48;17.98;;;11.98;;
65328;SDS011;51941;52.210;5.158;2022-11-15T07:03:34;17.38;;;11.63;;
65328;SDS011;51941;52.210;5.158;2022-11-15T07:06:20;16.45;;;10.52;;
65328;SDS011;51941;52.210;5.158;2022-11-15T07:09:05;14.52;;;10.55;;
65328;SDS011;51941;52.210;5.158;2022-11-15T07:11:51;20.15;;;12.93;;
65328;SDS011;51941;52.210;5.158;2022-11-15T07:14:36;19.88;;;12.18;;
65328;SDS011;51941;52.210;5.158;2022-11-15T07:17:23;18.95;;;11.70;;
65328;SDS011;51941;52.210;5.158;2022-11-15T07:20:08;13.23;;;8.80;;
65328;SDS011;51941;52.210;5.158;2022-11-15T07:22:59;17.85;;;11.30;;
65328;SDS011;51941;52.210;5.158;2022-11-15T07:25:45;13.88;;;9.60;;
65328;SDS011;51941;52.210;5.158;2022-11-15T07:28:30;12.20;;;8.90;;
65328;SDS011;51941;52.210;5.158;2022-11-15T07:31:15;12.98;;;9.23;;
65328;SDS011;51941;52.210;5.158;2022-11-15T07:34:02;15.15;;;10.20;;
65328;SDS011;51941;52.210;5.158;2022-11-15T07:36:47;16.92;;;11.30;;
65328;SDS011;51941;52.210;5.158;2022-11-15T07:39:33;13.45;;;8.93;;
65328;SDS011;51941;52.210;5.158;2022-11-15T07:42:18;17.20;;;11.20;;
65328;SDS011;51941;52.210;5.158;2022-11-15T07:45:21;14.65;;;9.80;;
65328;SDS011;51941;52.210;5.158;2022-11-15T07:48:09;15.80;;;10.27;;
65328;SDS011;51941;52.210;5.158;2022-11-15T07:50:56;18.65;;;11.80;;
65328;SDS011;51941;52.210;5.158;2022-11-15T07:53:41;14.25;;;10.32;;
65328;SDS011;51941;52.210;5.158;2022-11-15T07:56:27;13.52;;;8.88;;
65328;SDS011;51941;52.210;5.158;2022-11-15T07:59:12;14.18;;;10.60;;
65328;SDS011;51941;52.210;5.158;2022-11-15T08:01:57;16.05;;;10.57;;
65328;SDS011;51941;52.210;5.158;2022-11-15T08:04:43;14.68;;;9.65;;
65328;SDS011;51941;52.210;5.158;2022-11-15T08:07:30;14.77;;;8.52;;
65328;SDS011;51941;52.210;5.158;2022-11-15T08:10:16;12.68;;;8.40;;
65328;SDS011;51941;52.210;5.158;2022-11-15T08:13:04;15.48;;;9.98;;
65328;SDS011;51941;52.210;5.158;2022-11-15T08:15:50;13.35;;;9.48;;
65328;SDS011;51941;52.210;5.158;2022-11-15T08:18:36;16.45;;;9.20;;
65328;SDS011;51941;52.210;5.158;2022-11-15T08:21:21;16.25;;;9.23;;
65328;SDS011;51941;52.210;5.158;2022-11-15T08:24:09;13.52;;;8.57;;
65328;SDS011;51941;52.210;5.158;2022-11-15T08:26:55;10.88;;;7.82;;
65328;SDS011;51941;52.210;5.158;2022-11-15T08:29:40;20.17;;;10.85;;
65328;SDS011;51941;52.210;5.158;2022-11-15T08:32:26;14.68;;;9.60;;
65328;SDS011;51941;52.210;5.158;2022-11-15T08:35:12;12.60;;;9.45;;
65328;SDS011;51941;52.210;5.158;2022-11-15T08:37:57;14.82;;;10.68;;
65328;SDS011;51941;52.210;5.158;2022-11-15T08:40:44;13.32;;;8.55;;
65328;SDS011;51941;52.210;5.158;2022-11-15T08:43:30;14.50;;;9.75;;
65328;SDS011;51941;52.210;5.158;2022-11-15T08:46:15;14.07;;;9.77;;
65328;SDS011;51941;52.210;5.158;2022-11-15T08:49:01;14.23;;;8.98;;
65328;SDS011;51941;52.210;5.158;2022-11-15T08:51:47;12.65;;;8.40;;
65328;SDS011;51941;52.210;5.158;2022-11-15T08:54:32;11.73;;;7.82;;
65328;SDS011;51941;52.210;5.158;2022-11-15T08:57:19;12.20;;;7.68;;
65328;SDS011;51941;52.210;5.158;2022-11-15T09:00:04;15.25;;;8.98;;
65328;SDS011;51941;52.210;5.158;2022-11-15T09:02:51;13.88;;;9.50;;
65328;SDS011;51941;52.210;5.158;2022-11-15T09:05:36;17.70;;;8.70;;
65328;SDS011;51941;52.210;5.158;2022-11-15T09:08:22;15.93;;;9.50;;
65328;SDS011;51941;52.210;5.158;2022-11-15T09:11:08;11.95;;;8.43;;
65328;SDS011;51941;52.210;5.158;2022-11-15T09:13:56;13.35;;;9.45;;
65328;SDS011;51941;52.210;5.158;2022-11-15T09:16:41;12.77;;;8.00;;
65328;SDS011;51941;52.210;5.158;2022-11-15T09:19:27;15.20;;;7.90;;
65328;SDS011;51941;52.210;5.158;2022-11-15T09:22:12;12.07;;;7.00;;
65328;SDS011;51941;52.210;5.158;2022-11-15T09:24:58;13.18;;;7.57;;
65328;SDS011;51941;52.210;5.158;2022-11-15T09:27:43;11.73;;;7.18;;
65328;SDS011;51941;52.210;5.158;2022-11-15T09:30:30;15.18;;;8.55;;
65328;SDS011;51941;52.210;5.158;2022-11-15T09:33:15;10.25;;;7.45;;
65328;SDS011;51941;52.210;5.158;2022-11-15T09:36:00;13.10;;;7.13;;
65328;SDS011;51941;52.210;5.158;2022-11-15T09:38:46;11.85;;;7.45;;
65328;SDS011;51941;52.210;5.158;2022-11-15T09:41:47;12.60;;;7.13;;
65328;SDS011;51941;52.210;5.158;2022-11-15T09:44:42;12.25;;;7.90;;
65328;SDS011;51941;52.210;5.158;2022-11-15T09:47:46;10.13;;;6.45;;
65328;SDS011;51941;52.210;5.158;2022-11-15T09:51:01;12.60;;;6.70;;
65328;SDS011;51941;52.210;5.158;2022-11-15T09:53:32;11.57;;;7.13;;
65328;SDS011;51941;52.210;5.158;2022-11-15T09:56:08;8.98;;;6.43;;
65328;SDS011;51941;52.210;5.158;2022-11-15T09:58:43;6.07;;;5.40;;
65328;SDS011;51941;52.210;5.158;2022-11-15T10:04:06;7.68;;;5.45;;
65328;SDS011;51941;52.210;5.158;2022-11-15T10:06:33;7.65;;;5.22;;
65328;SDS011;51941;52.210;5.158;2022-11-15T10:09:06;8.50;;;5.28;;
65328;SDS011;51941;52.210;5.158;2022-11-15T10:11:39;7.88;;;4.80;;
65328;SDS011;51941;52.210;5.158;2022-11-15T10:14:09;7.10;;;5.05;;
65328;SDS011;51941;52.210;5.158;2022-11-15T10:16:53;7.05;;;4.50;;
65328;SDS011;51941;52.210;5.158;2022-11-15T10:19:34;8.13;;;4.30;;
65328;SDS011;51941;52.210;5.158;2022-11-15T10:22:11;7.07;;;4.80;;
65328;SDS011;51941;52.210;5.158;2022-11-15T10:24:47;8.02;;;4.40;;
65328;SDS011;51941;52.210;5.158;2022-11-15T10:27:17;5.87;;;4.37;;
65328;SDS011;51941;52.210;5.158;2022-11-15T10:29:45;5.82;;;3.83;;
65328;SDS011;51941;52.210;5.158;2022-11-15T10:32:13;4.43;;;3.35;;
65328;SDS011;51941;52.210;5.158;2022-11-15T10:34:42;7.82;;;3.85;;
65328;SDS011;51941;52.210;5.158;2022-11-15T10:37:09;6.40;;;4.28;;
65328;SDS011;51941;52.210;5.158;2022-11-15T10:39:37;5.93;;;3.92;;
65328;SDS011;51941;52.210;5.158;2022-11-15T10:42:16;6.90;;;3.70;;
65328;SDS011;51941;52.210;5.158;2022-11-15T10:44:45;8.07;;;4.07;;
65328;SDS011;51941;52.210;5.158;2022-11-15T10:47:22;6.57;;;3.58;;
65328;SDS011;51941;52.210;5.158;2022-11-15T10:49:57;7.25;;;3.72;;
65328;SDS011;51941;52.210;5.158;2022-11-15T10:52:25;5.45;;;3.42;;
65328;SDS011;51941;52.210;5.158;2022-11-15T10:54:53;6.35;;;3.47;;
65328;SDS011;51941;52.210;5.158;2022-11-15T10:57:25;6.20;;;4.00;;
65328;SDS011;51941;52.210;5.158;2022-11-15T10:59:55;5.35;;;3.70;;
65328;SDS011;51941;52.210;5.158;2022-11-15T11:02:29;5.78;;;3.20;;
65328;SDS011;51941;52.210;5.158;2022-11-15T11:05:00;5.22;;;3.22;;
65328;SDS011;51941;52.210;5.158;2022-11-15T11:07:30;7.40;;;3.78;;
65328;SDS011;51941;52.210;5.158;2022-11-15T11:09:59;6.68;;;3.80;;
65328;SDS011;51941;52.210;5.158;2022-11-15T11:12:29;4.68;;;2.80;;
65328;SDS011;51941;52.210;5.158;2022-11-15T11:14:57;6.00;;;3.10;;
65328;SDS011;51941;52.210;5.158;2022-11-15T11:17:29;6.10;;;3.25;;
65328;SDS011;51941;52.210;5.158;2022-11-15T11:20:06;4.53;;;2.53;;
65328;SDS011;51941;52.210;5.158;2022-11-15T11:22:49;4.88;;;2.25;;
65328;SDS011;51941;52.210;5.158;2022-11-15T11:25:27;3.42;;;2.30;;
65328;SDS011;51941;52.210;5.158;2022-11-15T11:28:14;3.70;;;2.17;;
65328;SDS011;51941;52.210;5.158;2022-11-15T11:30:57;2.78;;;1.90;;
65328;SDS011;51941;52.210;5.158;2022-11-15T11:33:32;2.25;;;1.48;;
65328;SDS011;51941;52.210;5.158;2022-11-15T11:36:09;5.68;;;1.42;;
65328;SDS011;51941;52.210;5.158;2022-11-15T11:38:49;3.75;;;1.50;;
65328;SDS011;51941;52.210;5.158;2022-11-15T11:41:37;6.28;;;1.90;;
65328;SDS011;51941;52.210;5.158;2022-11-15T11:44:15;3.22;;;1.40;;
65328;SDS011;51941;52.210;5.158;2022-11-15T11:46:52;3.67;;;1.50;;
65328;SDS011;51941;52.210;5.158;2022-11-15T11:49:24;3.60;;;1.40;;
65328;SDS011;51941;52.210;5.158;2022-11-15T11:51:58;3.60;;;1.73;;
65328;SDS011;51941;52.210;5.158;2022-11-15T11:54:31;3.20;;;1.30;;
65328;SDS011;51941;52.210;5.158;2022-11-15T11:57:05;5.50;;;1.20;;
65328;SDS011;51941;52.210;5.158;2022-11-15T11:59:44;2.63;;;1.20;;
65328;SDS011;51941;52.210;5.158;2022-11-15T12:02:19;4.97;;;1.48;;
65328;SDS011;51941;52.210;5.158;2022-11-15T12:04:51;5.65;;;1.40;;
65328;SDS011;51941;52.210;5.158;2022-11-15T12:07:37;4.32;;;1.30;;
65328;SDS011;51941;52.210;5.158;2022-11-15T12:10:11;4.65;;;1.40;;
65328;SDS011;51941;52.210;5.158;2022-11-15T12:12:47;3.03;;;1.08;;
65328;SDS011;51941;52.210;5.158;2022-11-15T12:15:21;3.75;;;1.00;;
65328;SDS011;51941;52.210;5.158;2022-11-15T12:17:50;5.65;;;1.02;;
65328;SDS011;51941;52.210;5.158;2022-11-15T12:20:18;6.57;;;1.20;;
65328;SDS011;51941;52.210;5.158;2022-11-15T12:22:51;2.00;;;0.85;;
65328;SDS011;51941;52.210;5.158;2022-11-15T12:25:22;3.47;;;1.00;;
65328;SDS011;51941;52.210;5.158;2022-11-15T12:27:56;3.85;;;1.05;;
65328;SDS011;51941;52.210;5.158;2022-11-15T12:30:29;3.90;;;0.90;;
65328;SDS011;51941;52.210;5.158;2022-11-15T12:33:13;4.70;;;1.27;;
65328;SDS011;51941;52.210;5.158;2022-11-15T12:36:00;5.07;;;0.85;;
65328;SDS011;51941;52.210;5.158;2022-11-15T12:41:23;3.05;;;0.95;;
65328;SDS011;51941;52.210;5.158;2022-11-15T12:43:51;4.53;;;0.88;;
65328;SDS011;51941;52.210;5.158;2022-11-15T12:49:42;7.88;;;1.00;;
65328;SDS011;51941;52.210;5.158;2022-11-15T12:52:11;3.55;;;0.85;;
65328;SDS011;51941;52.210;5.158;2022-11-15T12:54:57;4.47;;;1.00;;
65328;SDS011;51941;52.210;5.158;2022-11-15T12:57:30;6.97;;;0.80;;
65328;SDS011;51941;52.210;5.158;2022-11-15T13:00:05;3.75;;;0.93;;
65328;SDS011;51941;52.210;5.158;2022-11-15T13:03:20;3.25;;;1.13;;
65328;SDS011;51941;52.210;5.158;2022-11-15T13:08:36;3.33;;;0.75;;
65328;SDS011;51941;52.210;5.158;2022-11-15T13:17:25;1.65;;;0.50;;
65328;SDS011;51941;52.210;5.158;2022-11-15T13:20:00;3.78;;;0.60;;
65328;SDS011;51941;52.210;5.158;2022-11-15T13:22:39;1.00;;;0.65;;
65328;SDS011;51941;52.210;5.158;2022-11-15T13:25:18;1.02;;;0.32;;
65328;SDS011;51941;52.210;5.158;2022-11-15T13:27:49;2.85;;;0.60;;
65328;SDS011;51941;52.210;5.158;2022-11-15T13:30:19;2.67;;;0.60;;
65328;SDS011;51941;52.210;5.158;2022-11-15T13:32:50;2.75;;;0.60;;
65328;SDS011;51941;52.210;5.158;2022-11-15T13:35:19;2.45;;;0.80;;
65328;SDS011;51941;52.210;5.158;2022-11-15T13:40:22;4.55;;;1.05;;
65328;SDS011;51941;52.210;5.158;2022-11-15T13:42:52;6.00;;;0.82;;
65328;SDS011;51941;52.210;5.158;2022-11-15T13:45:19;2.83;;;0.93;;
65328;SDS011;51941;52.210;5.158;2022-11-15T13:47:52;4.00;;;0.73;;
65328;SDS011;51941;52.210;5.158;2022-11-15T13:50:21;2.55;;;0.80;;
65328;SDS011;51941;52.210;5.158;2022-11-15T13:52:50;3.65;;;0.80;;
65328;SDS011;51941;52.210;5.158;2022-11-15T13:55:19;4.70;;;0.88;;
65328;SDS011;51941;52.210;5.158;2022-11-15T13:57:48;3.28;;;0.88;;
65328;SDS011;51941;52.210;5.158;2022-11-15T14:03:06;2.28;;;0.68;;
65328;SDS011;51941;52.210;5.158;2022-11-15T14:05:39;3.38;;;0.90;;
65328;SDS011;51941;52.210;5.158;2022-11-15T14:08:13;5.40;;;0.80;;
65328;SDS011;51941;52.210;5.158;2022-11-15T14:10:48;4.32;;;1.08;;
65328;SDS011;51941;52.210;5.158;2022-11-15T14:13:32;2.65;;;0.90;;
65328;SDS011;51941;52.210;5.158;2022-11-15T14:16:12;3.65;;;0.90;;
65328;SDS011;51941;52.210;5.158;2022-11-15T14:18:42;1.75;;;0.60;;
65328;SDS011;51941;52.210;5.158;2022-11-15T14:21:11;3.40;;;1.00;;
65328;SDS011;51941;52.210;5.158;2022-11-15T14:23:38;2.40;;;0.70;;
65328;SDS011;51941;52.210;5.158;2022-11-15T14:26:05;4.05;;;1.05;;
65328;SDS011;51941;52.210;5.158;2022-11-15T14:28:32;4.32;;;1.08;;
65328;SDS011;51941;52.210;5.158;2022-11-15T14:31:04;3.47;;;0.90;;
65328;SDS011;51941;52.210;5.158;2022-11-15T14:33:37;0.93;;;0.70;;
65328;SDS011;51941;52.210;5.158;2022-11-15T14:36:11;5.47;;;1.10;;
65328;SDS011;51941;52.210;5.158;2022-11-15T14:38:39;2.33;;;1.00;;
65328;SDS011;51941;52.210;5.158;2022-11-15T14:41:10;3.33;;;1.08;;
65328;SDS011;51941;52.210;5.158;2022-11-15T14:43:44;4.85;;;1.17;;
65328;SDS011;51941;52.210;5.158;2022-11-15T14:46:10;3.05;;;1.08;;
65328;SDS011;51941;52.210;5.158;2022-11-15T14:48:37;2.97;;;1.08;;
65328;SDS011;51941;52.210;5.158;2022-11-15T14:51:10;7.25;;;1.13;;
65328;SDS011;51941;52.210;5.158;2022-11-15T14:53:39;2.55;;;0.75;;
65328;SDS011;51941;52.210;5.158;2022-11-15T14:56:06;3.50;;;0.70;;
65328;SDS011;51941;52.210;5.158;2022-11-15T14:58:33;4.22;;;0.82;;
65328;SDS011;51941;52.210;5.158;2022-11-15T15:00:59;2.40;;;0.73;;
65328;SDS011;51941;52.210;5.158;2022-11-15T15:03:28;2.50;;;0.85;;
65328;SDS011;51941;52.210;5.158;2022-11-15T15:05:55;3.83;;;0.98;;
65328;SDS011;51941;52.210;5.158;2022-11-15T15:08:24;3.67;;;1.00;;
65328;SDS011;51941;52.210;5.158;2022-11-15T15:10:51;2.33;;;0.80;;
65328;SDS011;51941;52.210;5.158;2022-11-15T15:13:18;2.72;;;0.75;;
65328;SDS011;51941;52.210;5.158;2022-11-15T15:15:47;4.77;;;1.07;;
65328;SDS011;51941;52.210;5.158;2022-11-15T15:18:14;3.33;;;0.80;;
65328;SDS011;51941;52.210;5.158;2022-11-15T15:20:41;4.55;;;1.10;;
65328;SDS011;51941;52.210;5.158;2022-11-15T15:23:14;2.20;;;0.80;;
65328;SDS011;51941;52.210;5.158;2022-11-15T15:25:44;2.58;;;0.70;;
65328;SDS011;51941;52.210;5.158;2022-11-15T15:28:13;2.90;;;0.70;;
65328;SDS011;51941;52.210;5.158;2022-11-15T15:30:39;3.47;;;0.95;;
65328;SDS011;51941;52.210;5.158;2022-11-15T15:33:07;3.92;;;0.95;;
65328;SDS011;51941;52.210;5.158;2022-11-15T15:35:34;2.08;;;0.80;;
65328;SDS011;51941;52.210;5.158;2022-11-15T15:38:01;2.70;;;0.93;;
65328;SDS011;51941;52.210;5.158;2022-11-15T15:40:29;1.40;;;0.60;;
65328;SDS011;51941;52.210;5.158;2022-11-15T15:42:59;4.82;;;0.70;;
65328;SDS011;51941;52.210;5.158;2022-11-15T15:45:26;1.88;;;0.57;;
65328;SDS011;51941;52.210;5.158;2022-11-15T15:47:54;1.35;;;0.60;;
65328;SDS011;51941;52.210;5.158;2022-11-15T15:50:22;4.85;;;0.70;;
65328;SDS011;51941;52.210;5.158;2022-11-15T15:52:50;3.05;;;0.60;;
65328;SDS011;51941;52.210;5.158;2022-11-15T15:55:18;3.75;;;1.00;;
65328;SDS011;51941;52.210;5.158;2022-11-15T15:57:45;3.28;;;0.68;;
65328;SDS011;51941;52.210;5.158;2022-11-15T16:00:14;1.02;;;0.50;;
65328;SDS011;51941;52.210;5.158;2022-11-15T16:02:42;0.68;;;0.50;;
65328;SDS011;51941;52.210;5.158;2022-11-15T16:05:09;5.05;;;0.70;;
65328;SDS011;51941;52.210;5.158;2022-11-15T16:07:36;2.42;;;0.43;;
65328;SDS011;51941;52.210;5.158;2022-11-15T16:10:12;1.95;;;0.60;;
65328;SDS011;51941;52.210;5.158;2022-11-15T16:12:43;1.23;;;0.60;;
65328;SDS011;51941;52.210;5.158;2022-11-15T16:15:10;1.88;;;0.45;;
65328;SDS011;51941;52.210;5.158;2022-11-15T16:17:39;2.38;;;0.80;;
65328;SDS011;51941;52.210;5.158;2022-11-15T16:20:14;1.92;;;0.85;;
65328;SDS011;51941;52.210;5.158;2022-11-15T16:22:54;1.55;;;0.80;;
65328;SDS011;51941;52.210;5.158;2022-11-15T16:25:21;2.80;;;0.70;;